KCID/CID METAR and TAF weather

Enter ICAO airport designator
Station Type Date Time Source
KCID METAR 2019/06/26 21:52 UTC NOAA

KCID 262152Z 11005KT 10SM CLR 29/21 A3000 RMK AO2 SLP153 T02890211 $


Station Type Date Time Source
KCID Decoded METAR 2019/06/26 21:52 UTC NOAA

CEDAR RAPIDS AIRPORT, IA, United States (KCID) 41-53N 91-43W
Jun 26, 2019 - 05:52 PM EDT / 2019.06.26 2152 UTC
Wind: from the ESE (110 degrees) at 6 MPH (5 KT):0
Visibility: 10 mile(s):0
Sky conditions: clear
Temperature: 84.0 F (28.9 C)
Dew Point: 70.0 F (21.1 C)
Relative Humidity: 62%
Pressure (altimeter): 30 in. Hg (1015 hPa)
ob: KCID 262152Z 11005KT 10SM CLR 29/21 A3000 RMK AO2 SLP153 T02890211
cycle: 22

Station Type Date Time Source
KCID TAF 2019/06/26 18:42 UTC NOAA

TAF KCID 261741Z 2618/2718 VRB03KT P6SM SCT040 BKN250
TEMPO 2710/2712 4SM BR
FM271500 18011KT P6SM BKN120

Example: see airport list